Search for airport 
image banner adimage banner ad
image banner ad

DNIB - Ibadan/Ibadan

Located in Ibadan, Nigeria

ICAO - DNIB, IATA - IBA

Data provided by Airmate  

General information

Coordinates: N7°21'45" E3°58'42"
Elevation is 728 feet MSL.
 
Rated:
View ratings: [VIEW]


View others Airports in Oyo

Operational data

Open for public use
Current time UTC:
Current local time:
Weather
METAR: DNIB 122200Z 25007KT 9999 FEW009 23/21 Q1015
TAF: TAF DNIB 121700Z 1218/1324 VRB02KT 9999 SCT010 TEMPO 1305/1308 5000 BR BECMG 1308/1310 23010KT BKN012 TEMPO 1313/1318 SCT013 BECMG 1318/1320 VRB02KT SCT010
View NOTAMs / SUP AIP / TFR affecting this airport [VIEW]
Communications frequencies: [VIEW]

Runways:

RWY identifierQFULength (ft)Width (ft)SurfaceLDA (ft)
0440°7874148
22220°7874148

Airport contact information

Address: Ibadan Nigeria

Satellite view of DNIB